Glory Sky — 3EPW8 — position and weather

sailwx.info

Track history (hours):
 
Tides and Currents Weather Stations Pressure Air Temp Water Temp Dewpoint Dewpoint Depression Visibility Wind Speed Wind Dir Waves Ship Positions

Glory Sky

Last reported at 2018-May-15 14:25 UTC. Time now 2018-Jun-21 14:24 UTC.
Position N 15°16' E 072°30'.
Warning: this ship's position is 36 days out of date.

Length 145 m; draft 8.2 m.

Type: Cargo ship. MMSI: 352150000.

Date/timePositionNaut miles runAvg speedWind from/ knotsBaromVisibWave heightAir tempDewpointWater temp
2018-May-15 14:25N 15°16' E 072°30'913.1
2018-May-15 13:43N 15°23' E 072°25'1412.8
2018-May-15 12:38N 15°34' E 072°16'12712.2
2018-May-15 02:14N 17°23' E 071°07'312.4
2018-May-15 02:00N 17°25' E 071°06'812.6
2018-May-15 01:24N 17°32' E 071°01'1412.3
2018-May-15 00:15N 17°44' E 070°54'4212.3
2018-May-14 20:51N 18°21' E 070°33'3412.2
2018-May-14 18:03N 18°51' E 070°17'112.2
2018-May-14 17:59N 18°52' E 070°17'1812.3
2018-May-14 16:30N 19°10' E 070°12'612.0
2018-May-14 16:00N 19°15' E 070°10'612.1
2018-May-14 15:30N 19°21' E 070°09'612.0
2018-May-14 15:00N 19°27' E 070°07'2012.1
2018-May-14 13:20N 19°46' E 070°02'512.1
2018-May-14 12:54N 19°52' E 070°00'511.9
2018-May-14 12:30N 19°56' E 069°59'1012.3
2018-May-14 11:44N 20°05' E 069°57'312.4
2018-May-14 11:29N 20°08' E 069°56'1012.4
2018-May-14 10:38N 20°18' E 069°53'212.2
2018-May-14 10:28N 20°20' E 069°52'612.0
2018-May-14 10:00N 20°26' E 069°50'  
2018-May-10 20:27N 21°36' E 069°34'0 0.0
2018-May-10 19:57N 21°36' E 069°34'0 0.0
2018-May-10 16:57N 21°36' E 069°34'0 0.0
2018-May-10 16:15N 21°36' E 069°34'0 0.0
2018-May-09 20:52N 21°36' E 069°34'0 0.0
2018-May-09 20:22N 21°36' E 069°34'0 0.0
2018-May-09 15:40N 21°36' E 069°34'58 6.7
2018-May-09 07:02N 20°40' E 069°47'213.0
2018-May-09 06:52N 20°38' E 069°47'513.0
2018-May-09 06:29N 20°33' E 069°49'612.9
2018-May-09 06:00N 20°27' E 069°51'713.1
2018-May-09 05:27N 20°20' E 069°52'613.2
2018-May-09 05:00N 20°14' E 069°54'713.2
2018-May-09 04:30N 20°08' E 069°56'713.2
2018-May-09 04:01N 20°02' E 069°57'712.8
2018-May-09 03:29N 19°55' E 069°59'612.5
2018-May-09 03:00N 19°49' E 070°01'612.7
2018-May-09 02:30N 19°43' E 070°03'612.6
2018-May-09 02:00N 19°37' E 070°04'612.7
2018-May-09 01:31N 19°31' E 070°06'612.6
2018-May-09 01:01N 19°25' E 070°08'612.7
2018-May-09 00:30N 19°19' E 070°10'912.7
2018-May-08 23:47N 19°10' E 070°12'412.8
2018-May-08 23:26N 19°05' E 070°13'612.9
2018-May-08 23:00N 19°00' E 070°14'712.8
2018-May-08 22:27N 18°53' E 070°16'613.0
2018-May-08 22:00N 18°48' E 070°18'612.8
2018-May-08 21:31N 18°42' E 070°20'3412.8
2018-May-08 18:51N 18°09' E 070°28'412.6
2018-May-08 18:30N 18°04' E 070°29'612.5
2018-May-08 18:00N 17°58' E 070°31'1912.6
2018-May-08 16:28N 17°40' E 070°36'612.7
2018-May-08 16:01N 17°34' E 070°37'712.9
2018-May-08 15:28N 17°27' E 070°39'612.9
2018-May-08 14:59N 17°21' E 070°41'1712.9
2018-May-08 13:41N 17°05' E 070°45'212.8
2018-May-08 13:31N 17°03' E 070°46'712.8
2018-May-08 13:00N 16°56' E 070°48'612.8
2018-May-08 12:31N 16°50' E 070°49'612.6
2018-May-08 12:01N 16°45' E 070°52'912.7
2018-May-08 11:18N 16°37' E 070°57'412.6
2018-May-08 10:59N 16°34' E 070°60'7512.9
2018-May-08 05:13N 15°35' E 071°47'313.5
2018-May-08 05:00N 15°33' E 071°49'  
Track history (hours):
 
Tides and Currents Weather Stations Pressure Air Temp Water Temp Dewpoint Dewpoint Depression Visibility Wind Speed Wind Dir Waves Ship Positions

Glory Sky

Last reported at 2018-May-15 14:25 UTC. Time now 2018-Jun-21 14:24 UTC.
Position N 15°16' E 072°30'.
Warning: this ship's position is 36 days out of date.

Length 145 m; draft 8.2 m.

Type: Cargo ship. MMSI: 352150000.

Date/timePositionNaut miles runAvg speedWind from/ knotsBaromVisibWave heightAir tempDewpointWater temp
2018-May-15 14:25N 15°16' E 072°30'913.1
2018-May-15 13:43N 15°23' E 072°25'1412.8
2018-May-15 12:38N 15°34' E 072°16'12712.2
2018-May-15 02:14N 17°23' E 071°07'312.4
2018-May-15 02:00N 17°25' E 071°06'812.6
2018-May-15 01:24N 17°32' E 071°01'1412.3
2018-May-15 00:15N 17°44' E 070°54'4212.3
2018-May-14 20:51N 18°21' E 070°33'3412.2
2018-May-14 18:03N 18°51' E 070°17'112.2
2018-May-14 17:59N 18°52' E 070°17'1812.3
2018-May-14 16:30N 19°10' E 070°12'612.0
2018-May-14 16:00N 19°15' E 070°10'612.1
2018-May-14 15:30N 19°21' E 070°09'612.0
2018-May-14 15:00N 19°27' E 070°07'2012.1
2018-May-14 13:20N 19°46' E 070°02'512.1
2018-May-14 12:54N 19°52' E 070°00'511.9
2018-May-14 12:30N 19°56' E 069°59'1012.3
2018-May-14 11:44N 20°05' E 069°57'312.4
2018-May-14 11:29N 20°08' E 069°56'1012.4
2018-May-14 10:38N 20°18' E 069°53'212.2
2018-May-14 10:28N 20°20' E 069°52'612.0
2018-May-14 10:00N 20°26' E 069°50'  
2018-May-10 20:27N 21°36' E 069°34'0 0.0
2018-May-10 19:57N 21°36' E 069°34'0 0.0
2018-May-10 16:57N 21°36' E 069°34'0 0.0
2018-May-10 16:15N 21°36' E 069°34'0 0.0
2018-May-09 20:52N 21°36' E 069°34'0 0.0
2018-May-09 20:22N 21°36' E 069°34'0 0.0
2018-May-09 15:40N 21°36' E 069°34'58 6.7
2018-May-09 07:02N 20°40' E 069°47'213.0
2018-May-09 06:52N 20°38' E 069°47'513.0
2018-May-09 06:29N 20°33' E 069°49'612.9
2018-May-09 06:00N 20°27' E 069°51'713.1
2018-May-09 05:27N 20°20' E 069°52'613.2
2018-May-09 05:00N 20°14' E 069°54'713.2
2018-May-09 04:30N 20°08' E 069°56'713.2
2018-May-09 04:01N 20°02' E 069°57'712.8
2018-May-09 03:29N 19°55' E 069°59'612.5
2018-May-09 03:00N 19°49' E 070°01'612.7
2018-May-09 02:30N 19°43' E 070°03'612.6
2018-May-09 02:00N 19°37' E 070°04'612.7
2018-May-09 01:31N 19°31' E 070°06'612.6
2018-May-09 01:01N 19°25' E 070°08'612.7
2018-May-09 00:30N 19°19' E 070°10'912.7
2018-May-08 23:47N 19°10' E 070°12'412.8
2018-May-08 23:26N 19°05' E 070°13'612.9
2018-May-08 23:00N 19°00' E 070°14'712.8
2018-May-08 22:27N 18°53' E 070°16'613.0
2018-May-08 22:00N 18°48' E 070°18'612.8
2018-May-08 21:31N 18°42' E 070°20'3412.8
2018-May-08 18:51N 18°09' E 070°28'412.6
2018-May-08 18:30N 18°04' E 070°29'612.5
2018-May-08 18:00N 17°58' E 070°31'1912.6
2018-May-08 16:28N 17°40' E 070°36'612.7
2018-May-08 16:01N 17°34' E 070°37'712.9
2018-May-08 15:28N 17°27' E 070°39'612.9
2018-May-08 14:59N 17°21' E 070°41'1712.9
2018-May-08 13:41N 17°05' E 070°45'212.8
2018-May-08 13:31N 17°03' E 070°46'712.8
2018-May-08 13:00N 16°56' E 070°48'612.8
2018-May-08 12:31N 16°50' E 070°49'612.6
2018-May-08 12:01N 16°45' E 070°52'912.7
2018-May-08 11:18N 16°37' E 070°57'412.6
2018-May-08 10:59N 16°34' E 070°60'7512.9
2018-May-08 05:13N 15°35' E 071°47'313.5
2018-May-08 05:00N 15°33' E 071°49'  

Dump ship's entire track history